sensor_id;sensor_type;location;lat;lon;timestamp;temperature;humidity
11067;DHT22;29763;50.904;5.530;2022-07-29T00:02:09;19.40;99.90
11067;DHT22;29763;50.904;5.530;2022-07-29T00:04:35;19.20;99.90
11067;DHT22;29763;50.904;5.530;2022-07-29T00:07:02;19.00;99.90
11067;DHT22;29763;50.904;5.530;2022-07-29T00:09:28;18.80;99.90
11067;DHT22;29763;50.904;5.530;2022-07-29T00:11:55;18.70;99.90
11067;DHT22;29763;50.904;5.530;2022-07-29T00:14:22;18.60;99.90
11067;DHT22;29763;50.904;5.530;2022-07-29T00:16:47;18.50;99.90
11067;DHT22;29763;50.904;5.530;2022-07-29T00:19:13;18.40;99.90
11067;DHT22;29763;50.904;5.530;2022-07-29T00:21:38;18.30;99.90
11067;DHT22;29763;50.904;5.530;2022-07-29T00:24:04;18.20;99.90
11067;DHT22;29763;50.904;5.530;2022-07-29T00:26:30;18.20;99.90
11067;DHT22;29763;50.904;5.530;2022-07-29T00:28:59;18.10;99.90
11067;DHT22;29763;50.904;5.530;2022-07-29T00:31:24;18.00;99.90
11067;DHT22;29763;50.904;5.530;2022-07-29T00:33:50;18.00;99.90
11067;DHT22;29763;50.904;5.530;2022-07-29T00:36:16;17.90;99.90
11067;DHT22;29763;50.904;5.530;2022-07-29T00:38:41;17.80;99.90
11067;DHT22;29763;50.904;5.530;2022-07-29T00:41:11;17.80;99.90
11067;DHT22;29763;50.904;5.530;2022-07-29T00:43:36;17.70;99.90
11067;DHT22;29763;50.904;5.530;2022-07-29T00:46:02;17.70;99.90
11067;DHT22;29763;50.904;5.530;2022-07-29T00:48:28;17.60;99.90
11067;DHT22;29763;50.904;5.530;2022-07-29T00:50:56;17.50;99.90
11067;DHT22;29763;50.904;5.530;2022-07-29T00:53:24;17.50;99.90
11067;DHT22;29763;50.904;5.530;2022-07-29T00:55:50;17.40;99.90
11067;DHT22;29763;50.904;5.530;2022-07-29T00:58:16;17.40;99.90
11067;DHT22;29763;50.904;5.530;2022-07-29T01:00:42;17.30;99.90
11067;DHT22;29763;50.904;5.530;2022-07-29T01:03:08;17.30;99.90
11067;DHT22;29763;50.904;5.530;2022-07-29T01:05:35;17.20;99.90
11067;DHT22;29763;50.904;5.530;2022-07-29T01:08:01;17.20;99.90
11067;DHT22;29763;50.904;5.530;2022-07-29T01:10:27;17.20;99.90
11067;DHT22;29763;50.904;5.530;2022-07-29T01:12:57;17.20;99.90
11067;DHT22;29763;50.904;5.530;2022-07-29T01:15:24;17.20;99.90
11067;DHT22;29763;50.904;5.530;2022-07-29T01:23:44;17.10;99.90
11067;DHT22;29763;50.904;5.530;2022-07-29T01:26:27;17.10;99.90
11067;DHT22;29763;50.904;5.530;2022-07-29T01:31:57;17.20;99.90
11067;DHT22;29763;50.904;5.530;2022-07-29T01:35:13;17.20;99.90
11067;DHT22;29763;50.904;5.530;2022-07-29T01:37:15;17.20;99.90
11067;DHT22;29763;50.904;5.530;2022-07-29T01:39:47;17.30;99.90
11067;DHT22;29763;50.904;5.530;2022-07-29T01:42:23;17.30;99.90
11067;DHT22;29763;50.904;5.530;2022-07-29T01:48:01;17.30;99.90
11067;DHT22;29763;50.904;5.530;2022-07-29T01:50:35;17.30;99.90
11067;DHT22;29763;50.904;5.530;2022-07-29T01:53:04;17.30;99.90
11067;DHT22;29763;50.904;5.530;2022-07-29T01:55:34;17.30;99.90
11067;DHT22;29763;50.904;5.530;2022-07-29T01:58:01;17.30;99.90
11067;DHT22;29763;50.904;5.530;2022-07-29T02:00:31;17.30;99.90
11067;DHT22;29763;50.904;5.530;2022-07-29T02:02:59;17.30;99.90
11067;DHT22;29763;50.904;5.530;2022-07-29T02:05:27;17.30;99.90
11067;DHT22;29763;50.904;5.530;2022-07-29T02:07:55;17.30;99.90
11067;DHT22;29763;50.904;5.530;2022-07-29T02:10:24;17.20;99.90
11067;DHT22;29763;50.904;5.530;2022-07-29T02:12:51;17.20;99.90
11067;DHT22;29763;50.904;5.530;2022-07-29T02:15:19;17.20;99.90
11067;DHT22;29763;50.904;5.530;2022-07-29T02:17:58;17.10;99.90
11067;DHT22;29763;50.904;5.530;2022-07-29T02:20:25;17.10;99.90
11067;DHT22;29763;50.904;5.530;2022-07-29T02:22:52;17.00;99.90
11067;DHT22;29763;50.904;5.530;2022-07-29T02:25:21;17.00;99.90
11067;DHT22;29763;50.904;5.530;2022-07-29T02:27:49;16.90;99.90
11067;DHT22;29763;50.904;5.530;2022-07-29T02:30:17;16.90;99.90
11067;DHT22;29763;50.904;5.530;2022-07-29T02:32:43;16.80;99.90
11067;DHT22;29763;50.904;5.530;2022-07-29T02:35:12;16.80;99.90
11067;DHT22;29763;50.904;5.530;2022-07-29T02:37:39;16.80;99.90
11067;DHT22;29763;50.904;5.530;2022-07-29T02:40:09;16.80;99.90
11067;DHT22;29763;50.904;5.530;2022-07-29T02:42:37;16.80;99.90
11067;DHT22;29763;50.904;5.530;2022-07-29T02:45:04;16.80;99.90
11067;DHT22;29763;50.904;5.530;2022-07-29T02:47:41;16.80;99.90
11067;DHT22;29763;50.904;5.530;2022-07-29T02:50:20;16.90;99.90
11067;DHT22;29763;50.904;5.530;2022-07-29T02:52:57;16.90;99.90
11067;DHT22;29763;50.904;5.530;2022-07-29T02:55:43;16.90;99.90
11067;DHT22;29763;50.904;5.530;2022-07-29T02:58:32;17.00;99.90
11067;DHT22;29763;50.904;5.530;2022-07-29T03:01:02;17.00;99.90
11067;DHT22;29763;50.904;5.530;2022-07-29T03:03:32;17.00;99.90
11067;DHT22;29763;50.904;5.530;2022-07-29T03:06:01;17.00;99.90
11067;DHT22;29763;50.904;5.530;2022-07-29T03:08:27;16.90;99.90
11067;DHT22;29763;50.904;5.530;2022-07-29T03:10:53;16.90;99.90
11067;DHT22;29763;50.904;5.530;2022-07-29T03:13:19;16.80;99.90
11067;DHT22;29763;50.904;5.530;2022-07-29T03:15:46;16.80;99.90
11067;DHT22;29763;50.904;5.530;2022-07-29T03:18:12;16.80;99.90
11067;DHT22;29763;50.904;5.530;2022-07-29T03:20:39;16.70;99.90
11067;DHT22;29763;50.904;5.530;2022-07-29T03:23:05;16.70;99.90
11067;DHT22;29763;50.904;5.530;2022-07-29T03:25:31;16.70;99.90
11067;DHT22;29763;50.904;5.530;2022-07-29T03:27:56;16.70;99.90
11067;DHT22;29763;50.904;5.530;2022-07-29T03:30:23;16.60;99.90
11067;DHT22;29763;50.904;5.530;2022-07-29T03:32:50;16.60;99.90
11067;DHT22;29763;50.904;5.530;2022-07-29T03:35:15;16.50;99.90
11067;DHT22;29763;50.904;5.530;2022-07-29T03:37:45;16.50;99.90
11067;DHT22;29763;50.904;5.530;2022-07-29T03:40:15;16.40;99.90
11067;DHT22;29763;50.904;5.530;2022-07-29T03:42:42;16.40;99.90
11067;DHT22;29763;50.904;5.530;2022-07-29T03:45:12;16.40;99.90
11067;DHT22;29763;50.904;5.530;2022-07-29T03:47:44;16.50;99.90
11067;DHT22;29763;50.904;5.530;2022-07-29T03:50:12;16.40;99.90
11067;DHT22;29763;50.904;5.530;2022-07-29T03:52:40;16.30;99.90
11067;DHT22;29763;50.904;5.530;2022-07-29T03:55:06;16.30;99.90
11067;DHT22;29763;50.904;5.530;2022-07-29T03:57:33;16.20;99.90
11067;DHT22;29763;50.904;5.530;2022-07-29T04:00:01;16.20;99.90
11067;DHT22;29763;50.904;5.530;2022-07-29T04:02:28;16.20;99.90
11067;DHT22;29763;50.904;5.530;2022-07-29T04:04:54;16.20;99.90
11067;DHT22;29763;50.904;5.530;2022-07-29T04:07:19;16.10;99.90
11067;DHT22;29763;50.904;5.530;2022-07-29T04:09:45;16.10;99.90
11067;DHT22;29763;50.904;5.530;2022-07-29T04:12:11;16.10;99.90
11067;DHT22;29763;50.904;5.530;2022-07-29T04:14:36;16.10;99.90
11067;DHT22;29763;50.904;5.530;2022-07-29T04:17:03;16.10;99.90
11067;DHT22;29763;50.904;5.530;2022-07-29T04:19:30;16.00;99.90
11067;DHT22;29763;50.904;5.530;2022-07-29T04:21:56;16.00;99.90
11067;DHT22;29763;50.904;5.530;2022-07-29T04:24:22;15.90;99.90
11067;DHT22;29763;50.904;5.530;2022-07-29T04:26:48;15.90;99.90
11067;DHT22;29763;50.904;5.530;2022-07-29T04:29:14;15.90;99.90
11067;DHT22;29763;50.904;5.530;2022-07-29T04:31:43;15.80;99.90
11067;DHT22;29763;50.904;5.530;2022-07-29T04:34:10;15.90;99.90
11067;DHT22;29763;50.904;5.530;2022-07-29T04:36:35;15.90;99.90
11067;DHT22;29763;50.904;5.530;2022-07-29T04:39:01;15.90;99.90
11067;DHT22;29763;50.904;5.530;2022-07-29T04:41:27;15.90;99.90
11067;DHT22;29763;50.904;5.530;2022-07-29T04:43:53;15.90;99.90
11067;DHT22;29763;50.904;5.530;2022-07-29T04:46:19;15.90;99.90
11067;DHT22;29763;50.904;5.530;2022-07-29T04:48:48;15.90;99.90
11067;DHT22;29763;50.904;5.530;2022-07-29T04:51:16;15.90;99.90
11067;DHT22;29763;50.904;5.530;2022-07-29T04:53:42;15.90;99.90
11067;DHT22;29763;50.904;5.530;2022-07-29T04:56:08;16.00;99.90
11067;DHT22;29763;50.904;5.530;2022-07-29T04:58:34;16.10;99.90
11067;DHT22;29763;50.904;5.530;2022-07-29T05:01:00;16.10;99.90
11067;DHT22;29763;50.904;5.530;2022-07-29T05:03:26;16.20;99.90
11067;DHT22;29763;50.904;5.530;2022-07-29T05:05:52;16.20;99.90
11067;DHT22;29763;50.904;5.530;2022-07-29T05:08:17;16.20;99.90
11067;DHT22;29763;50.904;5.530;2022-07-29T05:10:43;16.30;99.90
11067;DHT22;29763;50.904;5.530;2022-07-29T05:13:08;16.30;99.90
11067;DHT22;29763;50.904;5.530;2022-07-29T05:15:36;16.30;99.90
11067;DHT22;29763;50.904;5.530;2022-07-29T05:18:03;16.30;99.90
11067;DHT22;29763;50.904;5.530;2022-07-29T05:20:30;16.40;99.90
11067;DHT22;29763;50.904;5.530;2022-07-29T05:22:57;16.40;99.90
11067;DHT22;29763;50.904;5.530;2022-07-29T05:25:23;16.50;99.90
11067;DHT22;29763;50.904;5.530;2022-07-29T05:27:49;16.50;99.90
11067;DHT22;29763;50.904;5.530;2022-07-29T05:30:15;16.60;99.90
11067;DHT22;29763;50.904;5.530;2022-07-29T05:32:41;16.70;99.90
11067;DHT22;29763;50.904;5.530;2022-07-29T05:35:07;16.70;99.90
11067;DHT22;29763;50.904;5.530;2022-07-29T05:37:33;16.70;99.90
11067;DHT22;29763;50.904;5.530;2022-07-29T05:39:59;16.70;99.90
11067;DHT22;29763;50.904;5.530;2022-07-29T05:42:25;16.70;99.90
11067;DHT22;29763;50.904;5.530;2022-07-29T05:44:51;16.70;99.90
11067;DHT22;29763;50.904;5.530;2022-07-29T05:47:17;16.80;99.90
11067;DHT22;29763;50.904;5.530;2022-07-29T05:49:43;16.90;99.90
11067;DHT22;29763;50.904;5.530;2022-07-29T05:52:09;16.90;99.90
11067;DHT22;29763;50.904;5.530;2022-07-29T05:54:35;17.00;99.90
11067;DHT22;29763;50.904;5.530;2022-07-29T05:57:01;17.00;99.90
11067;DHT22;29763;50.904;5.530;2022-07-29T05:59:26;17.00;99.90
11067;DHT22;29763;50.904;5.530;2022-07-29T06:01:52;17.10;99.90
11067;DHT22;29763;50.904;5.530;2022-07-29T06:04:18;17.30;99.90
11067;DHT22;29763;50.904;5.530;2022-07-29T06:06:43;17.40;99.90
11067;DHT22;29763;50.904;5.530;2022-07-29T06:09:09;17.50;99.90
11067;DHT22;29763;50.904;5.530;2022-07-29T06:11:34;17.50;99.90
11067;DHT22;29763;50.904;5.530;2022-07-29T06:14:00;17.50;99.90
11067;DHT22;29763;50.904;5.530;2022-07-29T06:16:28;17.70;99.90
11067;DHT22;29763;50.904;5.530;2022-07-29T06:18:53;18.10;99.90
11067;DHT22;29763;50.904;5.530;2022-07-29T06:21:19;18.50;99.90
11067;DHT22;29763;50.904;5.530;2022-07-29T06:23:45;18.90;99.90
11067;DHT22;29763;50.904;5.530;2022-07-29T06:26:10;19.30;99.90
11067;DHT22;29763;50.904;5.530;2022-07-29T06:28:36;19.60;99.90
11067;DHT22;29763;50.904;5.530;2022-07-29T06:31:02;20.10;99.90
11067;DHT22;29763;50.904;5.530;2022-07-29T06:33:27;20.40;99.90
11067;DHT22;29763;50.904;5.530;2022-07-29T06:35:57;20.70;99.90
11067;DHT22;29763;50.904;5.530;2022-07-29T06:38:22;21.00;99.90
11067;DHT22;29763;50.904;5.530;2022-07-29T06:40:48;21.30;99.90
11067;DHT22;29763;50.904;5.530;2022-07-29T06:46:00;22.10;99.90
11067;DHT22;29763;50.904;5.530;2022-07-29T06:48:27;22.40;99.90
11067;DHT22;29763;50.904;5.530;2022-07-29T06:50:53;22.50;99.90
11067;DHT22;29763;50.904;5.530;2022-07-29T06:53:19;22.60;99.90
11067;DHT22;29763;50.904;5.530;2022-07-29T06:55:45;22.80;99.90
11067;DHT22;29763;50.904;5.530;2022-07-29T06:58:10;23.20;99.90
11067;DHT22;29763;50.904;5.530;2022-07-29T07:00:36;23.40;99.90
11067;DHT22;29763;50.904;5.530;2022-07-29T07:03:02;23.50;99.90
11067;DHT22;29763;50.904;5.530;2022-07-29T07:05:28;23.50;99.90
11067;DHT22;29763;50.904;5.530;2022-07-29T07:07:53;23.20;99.90
11067;DHT22;29763;50.904;5.530;2022-07-29T07:10:19;22.90;99.90
11067;DHT22;29763;50.904;5.530;2022-07-29T07:12:45;22.40;99.90
11067;DHT22;29763;50.904;5.530;2022-07-29T07:15:10;22.00;99.90
11067;DHT22;29763;50.904;5.530;2022-07-29T07:17:36;21.60;99.90
11067;DHT22;29763;50.904;5.530;2022-07-29T07:20:04;21.00;99.90
11067;DHT22;29763;50.904;5.530;2022-07-29T07:22:30;20.60;99.90
11067;DHT22;29763;50.904;5.530;2022-07-29T07:24:56;20.30;99.90
11067;DHT22;29763;50.904;5.530;2022-07-29T07:27:21;20.20;99.90
11067;DHT22;29763;50.904;5.530;2022-07-29T07:29:47;20.00;99.90
11067;DHT22;29763;50.904;5.530;2022-07-29T07:32:13;20.10;99.90
11067;DHT22;29763;50.904;5.530;2022-07-29T07:34:39;20.20;99.90
11067;DHT22;29763;50.904;5.530;2022-07-29T07:37:05;20.50;99.90
11067;DHT22;29763;50.904;5.530;2022-07-29T07:39:31;20.90;99.90
11067;DHT22;29763;50.904;5.530;2022-07-29T07:41:56;21.20;99.90
11067;DHT22;29763;50.904;5.530;2022-07-29T07:44:22;21.60;99.90
11067;DHT22;29763;50.904;5.530;2022-07-29T07:46:48;22.00;99.90
11067;DHT22;29763;50.904;5.530;2022-07-29T07:49:13;22.40;99.90
11067;DHT22;29763;50.904;5.530;2022-07-29T07:51:39;22.60;99.90
11067;DHT22;29763;50.904;5.530;2022-07-29T07:54:05;23.00;99.90
11067;DHT22;29763;50.904;5.530;2022-07-29T07:56:30;23.40;99.90
11067;DHT22;29763;50.904;5.530;2022-07-29T07:58:56;23.70;99.90
11067;DHT22;29763;50.904;5.530;2022-07-29T08:01:21;24.00;99.90
11067;DHT22;29763;50.904;5.530;2022-07-29T08:03:51;24.10;99.90
11067;DHT22;29763;50.904;5.530;2022-07-29T08:06:16;24.30;99.90
11067;DHT22;29763;50.904;5.530;2022-07-29T08:08:42;24.80;99.90
11067;DHT22;29763;50.904;5.530;2022-07-29T08:11:08;24.90;99.90
11067;DHT22;29763;50.904;5.530;2022-07-29T08:13:33;25.10;99.90
11067;DHT22;29763;50.904;5.530;2022-07-29T08:15:59;25.30;99.90
11067;DHT22;29763;50.904;5.530;2022-07-29T08:18:28;25.80;99.90
11067;DHT22;29763;50.904;5.530;2022-07-29T08:20:54;26.10;99.90
11067;DHT22;29763;50.904;5.530;2022-07-29T08:23:20;26.50;99.90
11067;DHT22;29763;50.904;5.530;2022-07-29T08:25:46;26.50;99.90
11067;DHT22;29763;50.904;5.530;2022-07-29T08:28:12;26.20;99.90
11067;DHT22;29763;50.904;5.530;2022-07-29T08:30:37;25.90;99.90
11067;DHT22;29763;50.904;5.530;2022-07-29T08:33:03;25.40;99.90
11067;DHT22;29763;50.904;5.530;2022-07-29T08:35:29;25.10;99.90
11067;DHT22;29763;50.904;5.530;2022-07-29T08:37:55;24.70;99.90
11067;DHT22;29763;50.904;5.530;2022-07-29T08:40:22;24.40;99.90
11067;DHT22;29763;50.904;5.530;2022-07-29T08:42:49;24.00;99.90
11067;DHT22;29763;50.904;5.530;2022-07-29T08:45:15;23.50;99.90
11067;DHT22;29763;50.904;5.530;2022-07-29T08:47:41;23.30;99.90
11067;DHT22;29763;50.904;5.530;2022-07-29T08:50:08;23.00;99.90
11067;DHT22;29763;50.904;5.530;2022-07-29T08:52:39;23.10;99.90
11067;DHT22;29763;50.904;5.530;2022-07-29T08:55:07;23.30;99.90
11067;DHT22;29763;50.904;5.530;2022-07-29T08:57:33;23.60;99.90
11067;DHT22;29763;50.904;5.530;2022-07-29T09:00:01;23.90;99.90
11067;DHT22;29763;50.904;5.530;2022-07-29T09:02:29;24.10;99.90
11067;DHT22;29763;50.904;5.530;2022-07-29T09:05:00;24.30;99.90
11067;DHT22;29763;50.904;5.530;2022-07-29T09:07:27;24.40;99.90
11067;DHT22;29763;50.904;5.530;2022-07-29T09:09:53;24.80;99.90
11067;DHT22;29763;50.904;5.530;2022-07-29T09:12:19;25.20;99.90
11067;DHT22;29763;50.904;5.530;2022-07-29T09:14:47;25.70;99.90
11067;DHT22;29763;50.904;5.530;2022-07-29T09:17:14;26.20;99.90
11067;DHT22;29763;50.904;5.530;2022-07-29T09:19:42;26.60;99.90
11067;DHT22;29763;50.904;5.530;2022-07-29T09:22:07;27.40;99.90
11067;DHT22;29763;50.904;5.530;2022-07-29T09:24:45;27.90;99.90
11067;DHT22;29763;50.904;5.530;2022-07-29T09:27:23;28.00;99.90
11067;DHT22;29763;50.904;5.530;2022-07-29T09:30:01;27.90;99.90
11067;DHT22;29763;50.904;5.530;2022-07-29T09:32:28;28.50;99.90
11067;DHT22;29763;50.904;5.530;2022-07-29T09:35:14;28.90;99.90
11067;DHT22;29763;50.904;5.530;2022-07-29T09:37:40;29.30;99.90
11067;DHT22;29763;50.904;5.530;2022-07-29T09:40:12;29.50;99.90
11067;DHT22;29763;50.904;5.530;2022-07-29T09:42:38;29.80;99.90
11067;DHT22;29763;50.904;5.530;2022-07-29T09:45:04;30.10;99.90
11067;DHT22;29763;50.904;5.530;2022-07-29T09:47:45;29.60;99.90
11067;DHT22;29763;50.904;5.530;2022-07-29T09:50:11;29.50;99.90
11067;DHT22;29763;50.904;5.530;2022-07-29T09:52:50;29.40;99.90
11067;DHT22;29763;50.904;5.530;2022-07-29T09:55:17;29.60;99.90
11067;DHT22;29763;50.904;5.530;2022-07-29T09:57:44;29.50;99.40
11067;DHT22;29763;50.904;5.530;2022-07-29T10:00:12;29.50;99.90
11067;DHT22;29763;50.904;5.530;2022-07-29T10:02:39;29.80;99.30
11067;DHT22;29763;50.904;5.530;2022-07-29T10:05:16;29.90;98.40
11067;DHT22;29763;50.904;5.530;2022-07-29T10:10:10;30.00;97.80
11067;DHT22;29763;50.904;5.530;2022-07-29T10:12:55;30.00;97.70
11067;DHT22;29763;50.904;5.530;2022-07-29T10:15:32;29.80;97.80
11067;DHT22;29763;50.904;5.530;2022-07-29T10:17:59;30.20;98.50
11067;DHT22;29763;50.904;5.530;2022-07-29T10:20:27;30.30;97.60
11067;DHT22;29763;50.904;5.530;2022-07-29T10:22:53;30.60;97.10
11067;DHT22;29763;50.904;5.530;2022-07-29T10:25:20;30.50;96.40
11067;DHT22;29763;50.904;5.530;2022-07-29T10:27:47;30.60;97.00
11067;DHT22;29763;50.904;5.530;2022-07-29T10:30:14;30.80;96.10
11067;DHT22;29763;50.904;5.530;2022-07-29T10:43:47;31.20;94.90
11067;DHT22;29763;50.904;5.530;2022-07-29T10:46:14;31.20;94.80
11067;DHT22;29763;50.904;5.530;2022-07-29T10:54:19;31.40;94.20
11067;DHT22;29763;50.904;5.530;2022-07-29T10:57:30;32.10;94.10
11067;DHT22;29763;50.904;5.530;2022-07-29T11:05:19;32.20;93.10
11067;DHT22;29763;50.904;5.530;2022-07-29T11:10:43;32.70;93.10
11067;DHT22;29763;50.904;5.530;2022-07-29T11:13:09;32.50;91.80
11067;DHT22;29763;50.904;5.530;2022-07-29T11:15:57;31.50;92.60
11067;DHT22;29763;50.904;5.530;2022-07-29T11:18:23;30.50;92.40
11067;DHT22;29763;50.904;5.530;2022-07-29T11:20:50;30.00;92.40
11067;DHT22;29763;50.904;5.530;2022-07-29T11:23:23;30.10;93.60
11067;DHT22;29763;50.904;5.530;2022-07-29T11:26:16;30.80;93.10
11067;DHT22;29763;50.904;5.530;2022-07-29T11:29:03;31.00;91.90
11067;DHT22;29763;50.904;5.530;2022-07-29T11:40:07;31.20;91.10
11067;DHT22;29763;50.904;5.530;2022-07-29T11:45:09;32.50;90.70
11067;DHT22;29763;50.904;5.530;2022-07-29T11:47:49;32.90;89.30
11067;DHT22;29763;50.904;5.530;2022-07-29T11:50:33;32.70;88.10
11067;DHT22;29763;50.904;5.530;2022-07-29T11:53:03;31.90;89.80
11067;DHT22;29763;50.904;5.530;2022-07-29T11:55:37;31.40;90.90
11067;DHT22;29763;50.904;5.530;2022-07-29T11:58:03;31.60;91.40
11067;DHT22;29763;50.904;5.530;2022-07-29T12:00:37;32.40;89.50
11067;DHT22;29763;50.904;5.530;2022-07-29T12:03:09;32.90;88.80
11067;DHT22;29763;50.904;5.530;2022-07-29T12:05:40;33.00;87.60
11067;DHT22;29763;50.904;5.530;2022-07-29T12:10:36;32.30;88.70
11067;DHT22;29763;50.904;5.530;2022-07-29T12:13:02;31.50;88.80
11067;DHT22;29763;50.904;5.530;2022-07-29T12:15:28;30.90;90.50
11067;DHT22;29763;50.904;5.530;2022-07-29T12:17:54;30.30;91.30
11067;DHT22;29763;50.904;5.530;2022-07-29T12:20:28;29.70;91.30
11067;DHT22;29763;50.904;5.530;2022-07-29T12:22:55;29.30;91.80
11067;DHT22;29763;50.904;5.530;2022-07-29T12:25:22;29.30;93.10
11067;DHT22;29763;50.904;5.530;2022-07-29T12:27:58;29.90;91.70
11067;DHT22;29763;50.904;5.530;2022-07-29T12:30:43;30.60;91.40
11067;DHT22;29763;50.904;5.530;2022-07-29T12:33:25;31.50;90.90
11067;DHT22;29763;50.904;5.530;2022-07-29T12:36:02;32.50;90.40
11067;DHT22;29763;50.904;5.530;2022-07-29T12:38:29;32.50;89.60
11067;DHT22;29763;50.904;5.530;2022-07-29T12:40:55;32.30;88.20
11067;DHT22;29763;50.904;5.530;2022-07-29T12:43:22;32.20;89.00
11067;DHT22;29763;50.904;5.530;2022-07-29T12:45:57;32.30;86.40
11067;DHT22;29763;50.904;5.530;2022-07-29T12:48:36;31.90;87.90
11067;DHT22;29763;50.904;5.530;2022-07-29T12:51:04;31.50;86.90
11067;DHT22;29763;50.904;5.530;2022-07-29T12:53:31;31.10;87.90
11067;DHT22;29763;50.904;5.530;2022-07-29T12:55:57;31.40;89.60
11067;DHT22;29763;50.904;5.530;2022-07-29T13:03:55;33.20;86.00
11067;DHT22;29763;50.904;5.530;2022-07-29T13:06:42;33.70;83.80
11067;DHT22;29763;50.904;5.530;2022-07-29T13:09:12;34.50;85.10
11067;DHT22;29763;50.904;5.530;2022-07-29T13:11:43;34.70;81.60
11067;DHT22;29763;50.904;5.530;2022-07-29T13:14:14;34.80;81.10
11067;DHT22;29763;50.904;5.530;2022-07-29T13:16:59;34.70;79.80
11067;DHT22;29763;50.904;5.530;2022-07-29T13:19:39;34.50;79.70
11067;DHT22;29763;50.904;5.530;2022-07-29T13:22:12;34.50;79.00
11067;DHT22;29763;50.904;5.530;2022-07-29T13:27:15;33.40;83.20
11067;DHT22;29763;50.904;5.530;2022-07-29T13:29:41;33.20;79.90
11067;DHT22;29763;50.904;5.530;2022-07-29T13:32:07;32.90;80.90
11067;DHT22;29763;50.904;5.530;2022-07-29T13:34:32;32.40;82.00
11067;DHT22;29763;50.904;5.530;2022-07-29T13:36:58;31.80;84.50
11067;DHT22;29763;50.904;5.530;2022-07-29T13:39:24;31.30;84.70
11067;DHT22;29763;50.904;5.530;2022-07-29T13:41:49;31.20;85.00
11067;DHT22;29763;50.904;5.530;2022-07-29T13:44:15;31.10;84.60
11067;DHT22;29763;50.904;5.530;2022-07-29T13:46:41;31.00;85.60
11067;DHT22;29763;50.904;5.530;2022-07-29T13:49:06;30.70;85.10
11067;DHT22;29763;50.904;5.530;2022-07-29T13:51:32;30.40;85.80
11067;DHT22;29763;50.904;5.530;2022-07-29T13:53:57;30.30;87.00
11067;DHT22;29763;50.904;5.530;2022-07-29T13:56:23;30.30;86.80
11067;DHT22;29763;50.904;5.530;2022-07-29T13:58:49;30.70;86.60
11067;DHT22;29763;50.904;5.530;2022-07-29T14:01:14;31.30;83.90
11067;DHT22;29763;50.904;5.530;2022-07-29T14:03:40;31.30;85.30
11067;DHT22;29763;50.904;5.530;2022-07-29T14:06:08;31.10;86.10
11067;DHT22;29763;50.904;5.530;2022-07-29T14:08:34;30.90;86.40
11067;DHT22;29763;50.904;5.530;2022-07-29T14:11:00;30.50;88.00
11067;DHT22;29763;50.904;5.530;2022-07-29T14:13:25;30.20;88.70
11067;DHT22;29763;50.904;5.530;2022-07-29T14:15:52;30.10;88.80
11067;DHT22;29763;50.904;5.530;2022-07-29T14:18:18;29.80;88.20
11067;DHT22;29763;50.904;5.530;2022-07-29T14:20:43;29.60;89.80
11067;DHT22;29763;50.904;5.530;2022-07-29T14:23:09;29.30;88.50
11067;DHT22;29763;50.904;5.530;2022-07-29T14:25:35;29.10;90.20
11067;DHT22;29763;50.904;5.530;2022-07-29T14:28:00;29.00;89.70
11067;DHT22;29763;50.904;5.530;2022-07-29T14:30:26;28.60;90.00
11067;DHT22;29763;50.904;5.530;2022-07-29T14:32:51;28.70;90.20
11067;DHT22;29763;50.904;5.530;2022-07-29T14:35:17;29.30;90.00
11067;DHT22;29763;50.904;5.530;2022-07-29T14:37:43;29.80;87.60
11067;DHT22;29763;50.904;5.530;2022-07-29T14:40:09;30.40;87.00
11067;DHT22;29763;50.904;5.530;2022-07-29T14:42:35;31.00;86.30
11067;DHT22;29763;50.904;5.530;2022-07-29T14:45:02;31.20;84.80
11067;DHT22;29763;50.904;5.530;2022-07-29T14:47:28;31.70;86.30
11067;DHT22;29763;50.904;5.530;2022-07-29T14:49:55;32.00;81.30
11067;DHT22;29763;50.904;5.530;2022-07-29T14:52:20;32.00;80.50
11067;DHT22;29763;50.904;5.530;2022-07-29T14:54:46;31.60;81.40
11067;DHT22;29763;50.904;5.530;2022-07-29T14:57:12;31.70;83.30
11067;DHT22;29763;50.904;5.530;2022-07-29T14:59:37;31.80;81.30
11067;DHT22;29763;50.904;5.530;2022-07-29T15:02:03;32.00;80.70
11067;DHT22;29763;50.904;5.530;2022-07-29T15:04:28;32.10;79.10
11067;DHT22;29763;50.904;5.530;2022-07-29T15:06:54;31.90;78.50
11067;DHT22;29763;50.904;5.530;2022-07-29T15:09:20;31.70;79.40
11067;DHT22;29763;50.904;5.530;2022-07-29T15:11:45;31.50;81.50
11067;DHT22;29763;50.904;5.530;2022-07-29T15:14:11;31.60;81.70
11067;DHT22;29763;50.904;5.530;2022-07-29T15:16:38;31.60;81.10
11067;DHT22;29763;50.904;5.530;2022-07-29T15:19:04;31.40;81.40
11067;DHT22;29763;50.904;5.530;2022-07-29T15:21:30;31.20;80.70
11067;DHT22;29763;50.904;5.530;2022-07-29T15:23:55;30.80;81.70
11067;DHT22;29763;50.904;5.530;2022-07-29T15:26:21;30.20;83.00
11067;DHT22;29763;50.904;5.530;2022-07-29T15:28:47;29.60;84.90
11067;DHT22;29763;50.904;5.530;2022-07-29T15:31:12;29.20;84.90
11067;DHT22;29763;50.904;5.530;2022-07-29T15:33:39;29.00;85.10
11067;DHT22;29763;50.904;5.530;2022-07-29T15:36:05;28.70;87.20
11067;DHT22;29763;50.904;5.530;2022-07-29T15:38:31;28.40;86.90
11067;DHT22;29763;50.904;5.530;2022-07-29T15:40:57;28.10;87.50
11067;DHT22;29763;50.904;5.530;2022-07-29T15:43:23;27.90;87.90
11067;DHT22;29763;50.904;5.530;2022-07-29T15:45:48;27.80;87.70
11067;DHT22;29763;50.904;5.530;2022-07-29T15:48:33;27.90;88.60
11067;DHT22;29763;50.904;5.530;2022-07-29T15:51:02;28.10;90.00
11067;DHT22;29763;50.904;5.530;2022-07-29T15:53:28;28.20;89.30
11067;DHT22;29763;50.904;5.530;2022-07-29T15:55:54;28.40;88.50
11067;DHT22;29763;50.904;5.530;2022-07-29T15:58:19;28.50;86.10
11067;DHT22;29763;50.904;5.530;2022-07-29T16:00:45;28.40;87.30
11067;DHT22;29763;50.904;5.530;2022-07-29T16:03:11;28.40;88.80
11067;DHT22;29763;50.904;5.530;2022-07-29T16:05:37;28.20;86.40
11067;DHT22;29763;50.904;5.530;2022-07-29T16:08:02;28.10;87.30
11067;DHT22;29763;50.904;5.530;2022-07-29T16:10:28;27.80;86.70
11067;DHT22;29763;50.904;5.530;2022-07-29T16:12:54;27.70;87.10
11067;DHT22;29763;50.904;5.530;2022-07-29T16:15:19;27.60;87.50
11067;DHT22;29763;50.904;5.530;2022-07-29T16:17:45;27.50;87.20
11067;DHT22;29763;50.904;5.530;2022-07-29T16:20:11;27.40;86.80
11067;DHT22;29763;50.904;5.530;2022-07-29T16:22:36;27.20;86.00
11067;DHT22;29763;50.904;5.530;2022-07-29T16:25:02;27.00;87.60
11067;DHT22;29763;50.904;5.530;2022-07-29T16:27:28;26.70;88.00
11067;DHT22;29763;50.904;5.530;2022-07-29T16:29:54;26.60;89.40
11067;DHT22;29763;50.904;5.530;2022-07-29T16:32:20;26.50;89.20
11067;DHT22;29763;50.904;5.530;2022-07-29T16:34:46;26.40;88.10
11067;DHT22;29763;50.904;5.530;2022-07-29T16:37:12;26.30;88.20
11067;DHT22;29763;50.904;5.530;2022-07-29T16:39:37;26.20;89.30